Terminal Aerodrome Forecast
Issued by NWS

Home | Current Version | Previous Version | Text Only | Print | Product List | Glossary On
Versions: 1 2 3 4 5 6 7 8 9 10 11 12
170
FTUS44 KTSA 202320
TAFBVO
TAF
KBVO 202320Z 2100/2124 16010KT P6SM BKN250
     FM210300 17012KT P6SM SCT040 BKN250 WS020/20040KT
     FM211000 16011KT P6SM BKN020 WS020/20040KT
     FM211600 18013G21KT P6SM BKN012
     FM211800 18015G25KT P6SM BKN020=

USA.gov is the U.S. government's official web portal to all federal, state and local government web resources and services.